Flight Track Log - Related Links

Times and Time Zones

All times are in EDT time to prevent confusion due to time zone crossing. See the DLH203 flight status page for this flight to view local times or setup timezone preferences in your user account.

Time Position Orientation Groundspeed Altitude Reporting Facility
EDT Latitude Longitude Course Direction KTS MPH feet Rate Location/Type
Wed 02:49:00 PM 52.3601 12.8800 231° Southwest  Level Estimated
Wed 02:50:00 PM 52.3100 12.7787 231° Southwest  Level Estimated
Wed 02:51:00 PM 52.2598 12.6776 231° Southwest  Level Estimated
Wed 02:52:00 PM 52.2095 12.5767 231° Southwest  Level Estimated
Wed 02:53:00 PM 52.1591 12.4760 231° Southwest  Level Estimated
Wed 02:54:00 PM 52.1086 12.3756 231° Southwest  Level Estimated
Wed 02:55:00 PM 52.0581 12.2754 231° Southwest  Level Estimated
Wed 02:56:00 PM 52.0075 12.1754 231° Southwest  Level Estimated
Wed 02:57:00 PM 51.9567 12.0757 230° Southwest  Level Estimated
Wed 02:58:00 PM 51.9059 11.9762 230° Southwest  Level Estimated
Wed 02:59:00 PM 51.8551 11.8769 230° Southwest  Level Estimated
Wed 03:00:00 PM 51.8041 11.7778 230° Southwest  Level Estimated
Wed 03:01:00 PM 51.7530 11.6789 230° Southwest  Level Estimated
Wed 03:02:00 PM 51.7019 11.5803 230° Southwest  Level Estimated
Wed 03:03:00 PM 51.6507 11.4819 230° Southwest  Level Estimated
Wed 03:04:00 PM 51.5994 11.3837 230° Southwest  Level Estimated
Wed 03:05:00 PM 51.5480 11.2858 230° Southwest  Level Estimated
Wed 03:06:00 PM 51.4966 11.1880 230° Southwest  Level Estimated
Wed 03:07:00 PM 51.4450 11.0905 230° Southwest  Level Estimated
Wed 03:08:00 PM 51.3934 10.9932 230° Southwest  Level Estimated
Wed 03:09:00 PM 51.3417 10.8961 230° Southwest  Level Estimated
Wed 03:10:00 PM 51.2899 10.7993 229° Southwest  Level Estimated
Wed 03:11:00 PM 51.2380 10.7026 229° Southwest  Level Estimated
Wed 03:12:00 PM 51.1861 10.6062 229° Southwest  Level Estimated
Wed 03:13:00 PM 51.1341 10.5100 229° Southwest  Level Estimated
Wed 03:14:00 PM 51.0820 10.4140 229° Southwest  Level Estimated
Wed 03:15:00 PM 51.0298 10.3182 229° Southwest  Level Estimated
Wed 03:16:00 PM 50.9776 10.2227 229° Southwest  Level Estimated
Wed 03:17:00 PM 50.9252 10.1273 229° Southwest  Level Estimated
Wed 03:18:00 PM 50.8728 10.0322 229° Southwest  Level Estimated
Wed 03:19:00 PM 50.8203 9.9373 229° Southwest  Level Estimated
Wed 03:20:00 PM 50.7677 9.8426 229° Southwest  Level Estimated
Wed 03:21:00 PM 50.7151 9.7481 229° Southwest  Level Estimated
Wed 03:22:00 PM 50.6624 9.6538 229° Southwest  Level Estimated
Wed 03:23:00 PM 50.6096 9.5598 229° Southwest  Level Estimated
Wed 03:24:00 PM 50.5567 9.4659 228° Southwest  Level Estimated
Wed 03:25:00 PM 50.5038 9.3723 228° Southwest  Level Estimated
Wed 03:26:00 PM 50.4508 9.2789 228° Southwest  Level Estimated
Wed 03:27:00 PM 50.3977 9.1856 228° Southwest  Level Estimated
Wed 03:28:00 PM 50.3445 9.0926 228° Southwest  Level Estimated
Wed 03:29:00 PM 50.2912 8.9998 228° Southwest  Level Estimated
Wed 03:30:00 PM 50.2379 8.9072 228° Southwest  Level Estimated
Wed 03:31:00 PM 50.1846 8.8148 228° Southwest  Level Estimated
Wed 03:32:00 PM 50.1311 8.7226 228° Southwest  Level Estimated
Wed 03:33:00 PM 50.0775 8.6307 228° Southwest  Level Estimated
Wed 03:34:00 PM 50.0264 8.5431 228° Southwest  Level Estimated
Wed 03:35:00 PM 50.0264 8.5431 North  Level Estimated
Wed 03:36:00 PM 50.0264 8.5431 North  Level Estimated
Wed 03:37:00 PM 50.0264 8.5431 North  Level Estimated
Wed 03:38:00 PM 50.0264 8.5431 North  Level Estimated
Wed 03:39:00 PM 50.0264 8.5431 North  Level Estimated

Login

Don't have an account? Register now (free) for customized features, flight alerts, and more!